Mobile Regional Airport Mobile US
ICAO: KMOB
IATA: MOB
Category: Large
Scheduled Services: Yes

Elevation: 219 ft
TransAlt. 18000 ft.

Airport Communications:
APP/DEP:118.5
ATIS:124.75
CLNC DEL:119.85
CTAF:118.3
GND:121.9
ARNG OPS:41.05
AIR:34.5
ANNISTON RDO:122.2
TWR:118.3
UNICOM:122.95

KMOB Zoom In..

If you have problems with the map follow the link
https://www.worldairports.se/pages/airport.php?
ICAO=KMOB

Runways:

(A) RW 14 length 8502 ft width 150 ft
ILS 109.90 / hdg 145

(B) RW 18 length 4376 ft width 150 ft
---- / hdg 181

(C) RW 32 length 8502 ft width 150 ft
ILS 111.50 / hdg 325

(D) RW 36 length 4376 ft width 150 ft
---- / hdg 1

Location; KMOB
Day. 20 / Time. 20.56 Zulu
* Altimeter: 29.91
* Temperature: 24° c. 75.2°f.
* Wind from: 190° Speed 18 kn with Gusts up to 26 kn.
Dewpoint: 22° c.
Visibility: 5 Statute Miles.
Clouds: Broken 900 ft.
Clouds: Overcast 1400 ft.
Conditions: Mist.

KMOB 202056Z 19018G26KT 5SM BR BKN009 OVC014 24/22 A2991 RMK AO2 PK WND 17027/2044 SLP127 60001 T02390222 56013


Wind From 190°
Speed 18 kn.

 
 
jpsmedia.com for Web Design worldairports.se 2019   terms of use